createdAt,value
2018-02-10T00:00:58.296Z,0.00
2018-02-10T00:01:58.261Z,0.00
2018-02-10T00:03:54.229Z,0.00
2018-02-10T00:04:54.190Z,0.00
2018-02-10T00:06:50.137Z,0.00
2018-02-10T00:07:50.117Z,0.00
2018-02-10T00:09:46.030Z,0.00
2018-02-10T00:10:46.032Z,0.00
2018-02-10T00:12:41.968Z,0.00
2018-02-10T00:13:41.957Z,0.00
2018-02-10T00:15:38.916Z,0.00
2018-02-10T00:16:38.396Z,0.00
2018-02-10T00:18:33.786Z,0.00
2018-02-10T00:19:33.773Z,0.00
2018-02-10T00:21:29.736Z,0.00
2018-02-10T00:22:30.215Z,0.00
2018-02-10T00:24:26.173Z,0.00
2018-02-10T00:25:26.147Z,0.00
2018-02-10T00:27:21.581Z,0.00
2018-02-10T00:28:21.558Z,0.00
2018-02-10T00:30:18.007Z,0.00
2018-02-10T00:31:17.493Z,0.00
2018-02-10T00:33:13.404Z,0.00
2018-02-10T00:34:13.415Z,0.00
2018-02-10T00:36:09.356Z,0.00
2018-02-10T00:37:09.835Z,0.00
2018-02-10T00:39:03.265Z,0.00
2018-02-10T00:40:02.746Z,0.00
2018-02-10T00:41:59.185Z,0.00
2018-02-10T00:42:59.186Z,0.00
2018-02-10T00:44:54.590Z,0.00
2018-02-10T00:45:54.586Z,0.00
2018-02-10T00:47:51.531Z,0.00
2018-02-10T00:48:50.483Z,0.00
2018-02-10T00:50:46.436Z,0.00
2018-02-10T00:51:46.404Z,0.00
2018-02-10T00:53:42.344Z,0.00
2018-02-10T00:54:42.330Z,0.00
2018-02-10T00:56:38.803Z,0.00
2018-02-10T00:57:38.261Z,0.00
2018-02-10T00:59:34.239Z,0.00
2018-02-10T01:00:34.701Z,0.00
2018-02-10T01:02:31.629Z,0.00
2018-02-10T01:03:30.116Z,0.00
2018-02-10T01:05:26.011Z,0.00
2018-02-10T01:06:26.559Z,0.00
2018-02-10T01:08:20.481Z,0.00
2018-02-10T01:09:20.967Z,0.00
2018-02-10T01:11:16.358Z,0.00
2018-02-10T01:12:16.867Z,0.00
2018-02-10T01:14:12.286Z,0.00
2018-02-10T01:15:12.264Z,0.00
2018-02-10T01:17:08.711Z,0.00
2018-02-10T01:18:08.717Z,0.00
2018-02-10T01:20:04.655Z,0.00
2018-02-10T01:21:04.105Z,0.00
2018-02-10T01:23:00.064Z,0.00
2018-02-10T01:24:00.025Z,0.00
2018-02-10T01:25:55.949Z,0.00
2018-02-10T01:26:55.953Z,0.00
2018-02-10T01:28:51.892Z,0.00
2018-02-10T01:29:51.892Z,0.00
2018-02-10T01:31:47.827Z,0.00
2018-02-10T01:32:47.815Z,0.00
2018-02-10T01:34:43.789Z,0.00
2018-02-10T01:35:43.721Z,0.00
2018-02-10T01:37:39.675Z,0.00
2018-02-10T01:38:40.175Z,0.00
2018-02-10T01:40:35.645Z,0.00
2018-02-10T01:41:35.590Z,0.00
2018-02-10T01:43:31.515Z,0.00
2018-02-10T01:44:31.518Z,0.00
2018-02-10T01:46:27.962Z,0.00
2018-02-10T01:47:27.447Z,0.00
2018-02-10T01:49:23.906Z,0.00
2018-02-10T01:50:23.388Z,0.00
2018-02-10T01:52:19.309Z,0.00
2018-02-10T01:53:19.296Z,0.00
2018-02-10T01:55:15.234Z,0.00
2018-02-10T01:56:15.215Z,0.00
2018-02-10T01:58:09.607Z,0.00
2018-02-10T01:59:09.613Z,0.00
2018-02-10T02:01:05.538Z,0.00
2018-02-10T02:02:05.533Z,0.00
2018-02-10T02:04:01.471Z,0.00
2018-02-10T02:05:01.449Z,0.00
2018-02-10T02:06:57.385Z,0.00
2018-02-10T02:07:57.377Z,0.00
2018-02-10T02:09:53.315Z,0.00
2018-02-10T02:10:53.289Z,0.00
2018-02-10T02:12:49.747Z,0.00
2018-02-10T02:13:49.198Z,0.00
2018-02-10T02:15:45.661Z,0.00
2018-02-10T02:16:45.113Z,0.00
2018-02-10T02:18:41.001Z,0.00
2018-02-10T02:19:41.011Z,0.00
2018-02-10T02:21:37.455Z,0.00
2018-02-10T02:22:36.932Z,0.00
2018-02-10T02:24:32.880Z,0.00
2018-02-10T02:25:32.881Z,0.00
2018-02-10T02:27:28.857Z,0.00
2018-02-10T02:28:29.320Z,0.00
2018-02-10T02:30:24.747Z,0.00
2018-02-10T02:31:24.709Z,0.00
2018-02-10T02:33:20.676Z,0.00
2018-02-10T02:34:20.630Z,0.00
2018-02-10T02:36:16.592Z,0.00
2018-02-10T02:37:16.572Z,0.00
2018-02-10T02:39:12.464Z,0.00
2018-02-10T02:40:12.454Z,0.00
2018-02-10T02:42:08.426Z,0.00
2018-02-10T02:43:08.410Z,0.00
2018-02-10T02:45:04.854Z,0.00
2018-02-10T02:46:04.318Z,0.00
2018-02-10T02:48:00.776Z,0.00
2018-02-10T02:49:00.227Z,0.00
2018-02-10T02:50:56.189Z,0.00
2018-02-10T02:51:56.133Z,0.00
2018-02-10T02:53:52.062Z,0.00
2018-02-10T02:54:52.051Z,0.00
2018-02-10T02:56:48.494Z,0.00
2018-02-10T02:57:48.498Z,0.00
2018-02-10T02:59:43.905Z,0.00
2018-02-10T03:00:44.427Z,0.00
2018-02-10T03:02:39.822Z,0.00
2018-02-10T03:03:39.821Z,0.00
2018-02-10T03:05:35.750Z,0.00
2018-02-10T03:06:35.744Z,0.00
2018-02-10T03:08:33.181Z,0.00
2018-02-10T03:09:31.644Z,0.00
2018-02-10T03:11:26.066Z,0.00
2018-02-10T03:12:26.071Z,0.00
2018-02-10T03:14:22.006Z,0.00
2018-02-10T03:15:21.991Z,0.00
2018-02-10T03:17:18.448Z,0.00
2018-02-10T03:18:18.928Z,0.00
2018-02-10T03:20:13.867Z,0.00
2018-02-10T03:21:13.879Z,0.00
2018-02-10T03:23:10.351Z,0.00
2018-02-10T03:24:09.820Z,0.00
2018-02-10T03:26:05.715Z,0.00
2018-02-10T03:27:05.709Z,0.00
2018-02-10T03:29:01.640Z,0.00
2018-02-10T03:30:01.626Z,0.00
2018-02-10T03:31:57.600Z,0.00
2018-02-10T03:32:57.539Z,0.00
2018-02-10T03:34:53.447Z,0.00
2018-02-10T03:35:53.446Z,0.00
2018-02-10T03:37:49.898Z,0.00
2018-02-10T03:38:49.919Z,0.00
2018-02-10T03:40:45.784Z,0.00
2018-02-10T03:41:45.788Z,0.00
2018-02-10T03:43:41.698Z,0.00
2018-02-10T03:44:41.165Z,0.00
2018-02-10T03:46:37.607Z,0.00
2018-02-10T03:47:37.617Z,0.00
2018-02-10T03:49:33.001Z,0.00
2018-02-10T03:50:33.016Z,0.00
2018-02-10T03:52:29.466Z,0.00
2018-02-10T03:53:28.939Z,0.00
2018-02-10T03:55:24.865Z,0.00
2018-02-10T03:56:25.384Z,0.00
2018-02-10T03:58:20.830Z,0.00
2018-02-10T03:59:20.760Z,0.00
2018-02-10T04:01:17.706Z,0.00
2018-02-10T04:02:16.717Z,0.00
2018-02-10T04:04:12.668Z,0.00
2018-02-10T04:05:12.616Z,0.00
2018-02-10T04:07:08.550Z,0.00
2018-02-10T04:08:08.536Z,0.00
2018-02-10T04:10:04.486Z,0.00
2018-02-10T04:11:04.501Z,0.00
2018-02-10T04:13:00.414Z,0.00
2018-02-10T04:14:00.454Z,0.00
2018-02-10T04:15:56.299Z,0.00
2018-02-10T04:16:56.313Z,0.00
2018-02-10T04:18:52.751Z,0.00
2018-02-10T04:19:52.754Z,0.00
2018-02-10T04:21:48.689Z,0.00
2018-02-10T04:22:48.155Z,0.00
2018-02-10T04:24:44.597Z,0.00
2018-02-10T04:25:44.086Z,0.00
2018-02-10T04:27:40.033Z,0.00
2018-02-10T04:28:40.008Z,0.00
2018-02-10T04:30:35.980Z,0.00
2018-02-10T04:31:36.448Z,0.00
2018-02-10T04:33:31.870Z,0.00
2018-02-10T04:34:31.864Z,0.00
2018-02-10T04:36:26.809Z,0.00
2018-02-10T04:37:26.292Z,0.00
2018-02-10T04:39:22.731Z,0.00
2018-02-10T04:40:22.222Z,0.00
2018-02-10T04:42:18.676Z,0.00
2018-02-10T04:43:18.129Z,0.00
2018-02-10T04:45:14.056Z,0.00
2018-02-10T04:46:14.038Z,0.00
2018-02-10T04:48:09.948Z,0.00
2018-02-10T04:49:09.934Z,0.00
2018-02-10T04:51:07.385Z,0.00
2018-02-10T04:52:05.865Z,0.00
2018-02-10T04:54:01.769Z,0.00
2018-02-10T04:55:01.776Z,0.00
2018-02-10T04:56:57.740Z,0.00
2018-02-10T04:57:57.683Z,0.00
2018-02-10T04:59:53.651Z,0.00
2018-02-10T05:00:53.595Z,0.00
2018-02-10T05:02:49.561Z,0.00
2018-02-10T05:03:49.547Z,0.00
2018-02-10T05:05:45.461Z,0.00
2018-02-10T05:06:46.966Z,0.00
2018-02-10T05:08:41.327Z,0.00
2018-02-10T05:09:41.327Z,0.00
2018-02-10T05:11:37.287Z,0.00
2018-02-10T05:12:37.271Z,0.00
2018-02-10T05:14:33.208Z,0.00
2018-02-10T05:15:33.223Z,0.00
2018-02-10T05:17:29.137Z,0.00
2018-02-10T05:18:29.123Z,0.00
2018-02-10T05:20:25.061Z,0.00
2018-02-10T05:21:25.063Z,0.00
2018-02-10T05:23:20.981Z,0.00
2018-02-10T05:24:21.931Z,0.00
2018-02-10T05:26:16.907Z,0.00
2018-02-10T05:27:16.912Z,0.00
2018-02-10T05:29:13.846Z,0.00
2018-02-10T05:30:12.832Z,0.00
2018-02-10T05:32:07.759Z,0.00
2018-02-10T05:33:07.228Z,0.00
2018-02-10T05:35:01.675Z,0.00
2018-02-10T05:36:01.658Z,0.00
2018-02-10T05:37:58.096Z,0.00
2018-02-10T05:38:57.548Z,0.00
2018-02-10T05:40:53.996Z,0.00
2018-02-10T05:41:53.468Z,0.00
2018-02-10T05:43:49.424Z,0.00
2018-02-10T05:44:49.408Z,0.00
2018-02-10T05:46:45.848Z,0.00
2018-02-10T05:47:45.317Z,0.00
2018-02-10T05:49:41.315Z,0.00
2018-02-10T05:50:41.255Z,0.00
2018-02-10T05:52:37.195Z,0.00
2018-02-10T05:53:37.186Z,0.00
2018-02-10T05:55:33.631Z,0.00
2018-02-10T05:56:33.142Z,0.00
2018-02-10T05:58:29.037Z,0.00
2018-02-10T05:59:29.006Z,0.00
2018-02-10T06:01:23.491Z,0.00
2018-02-10T06:02:23.438Z,0.00
2018-02-10T06:04:19.415Z,0.00
2018-02-10T06:05:19.358Z,0.00
2018-02-10T06:07:16.297Z,0.00
2018-02-10T06:08:15.287Z,0.00
2018-02-10T06:10:12.721Z,0.00
2018-02-10T06:11:11.726Z,0.00
2018-02-10T06:13:08.143Z,0.00
2018-02-10T06:14:07.645Z,0.00
2018-02-10T06:16:03.075Z,0.00
2018-02-10T06:17:03.576Z,0.00
2018-02-10T06:18:58.984Z,0.00
2018-02-10T06:19:58.979Z,0.00
2018-02-10T06:21:55.441Z,0.00
2018-02-10T06:22:54.891Z,0.00
2018-02-10T06:24:50.873Z,0.00
2018-02-10T06:25:51.343Z,0.00
2018-02-10T06:27:47.270Z,4.00
2018-02-10T06:28:46.730Z,4.00
2018-02-10T06:30:42.649Z,0.00
2018-02-10T06:31:42.653Z,4.00
2018-02-10T06:33:39.098Z,4.00
2018-02-10T06:34:38.558Z,4.00
2018-02-10T06:36:35.434Z,4.00
2018-02-10T06:37:34.478Z,8.00
2018-02-10T06:39:30.416Z,8.00
2018-02-10T06:40:30.422Z,12.00
2018-02-10T06:42:26.382Z,16.00
2018-02-10T06:43:26.851Z,20.00
2018-02-10T06:45:22.283Z,24.00
2018-02-10T06:46:22.266Z,28.00
2018-02-10T06:48:18.206Z,36.00
2018-02-10T06:49:18.150Z,36.00
2018-02-10T06:51:14.075Z,48.00
2018-02-10T06:52:14.076Z,52.00
2018-02-10T06:54:10.006Z,60.00
2018-02-10T06:55:09.989Z,72.00
2018-02-10T06:57:08.432Z,88.00
2018-02-10T06:58:05.906Z,96.00
2018-02-10T07:00:01.847Z,124.00
2018-02-10T07:01:01.843Z,140.00
2018-02-10T07:02:57.823Z,148.00
2018-02-10T07:03:57.758Z,152.00
2018-02-10T07:05:53.722Z,168.00
2018-02-10T07:06:53.702Z,172.00
2018-02-10T07:08:49.631Z,196.00
2018-02-10T07:09:49.634Z,200.00
2018-02-10T07:11:45.576Z,216.00
2018-02-10T07:12:45.604Z,232.00
2018-02-10T07:14:41.676Z,268.00
2018-02-10T07:15:41.662Z,264.00
2018-02-10T07:17:36.586Z,280.00
2018-02-10T07:18:36.075Z,288.00
2018-02-10T07:20:32.006Z,300.00
2018-02-10T07:21:32.015Z,320.00
2018-02-10T07:23:27.927Z,392.00
2018-02-10T07:24:27.918Z,420.00
2018-02-10T07:26:24.386Z,404.00
2018-02-10T07:27:23.829Z,376.00
2018-02-10T07:29:19.757Z,400.00
2018-02-10T07:30:19.743Z,432.00
2018-02-10T07:32:16.691Z,448.00
2018-02-10T07:33:15.685Z,452.00
2018-02-10T07:35:11.607Z,464.00
2018-02-10T07:36:11.612Z,492.00
2018-02-10T07:38:08.577Z,512.00
2018-02-10T07:39:07.520Z,556.00
2018-02-10T07:41:03.958Z,632.00
2018-02-10T07:42:03.448Z,720.00
2018-02-10T07:43:59.416Z,788.00
2018-02-10T07:44:59.896Z,788.00
2018-02-10T07:46:55.286Z,688.00
2018-02-10T07:47:55.846Z,648.00
2018-02-10T07:49:51.264Z,720.00
2018-02-10T07:50:51.243Z,760.00
2018-02-10T07:52:47.697Z,816.00
2018-02-10T07:53:47.204Z,912.00
2018-02-10T07:55:43.128Z,996.00
2018-02-10T07:56:43.113Z,988.00
2018-02-10T07:58:40.074Z,1048.00
2018-02-10T07:59:40.054Z,1048.00
2018-02-10T08:01:35.082Z,1080.00
2018-02-10T08:02:35.063Z,1052.00
2018-02-10T08:04:32.034Z,1072.00
2018-02-10T08:05:31.001Z,1232.00
2018-02-10T08:07:26.953Z,1736.00
2018-02-10T08:08:27.435Z,1812.00
2018-02-10T08:10:22.860Z,1184.00
2018-02-10T08:11:22.843Z,1004.00
2018-02-10T08:13:18.798Z,904.00
2018-02-10T08:14:19.275Z,892.00
2018-02-10T08:16:14.207Z,888.00
2018-02-10T08:17:13.210Z,888.00
2018-02-10T08:19:09.096Z,912.00
2018-02-10T08:20:09.094Z,964.00
2018-02-10T08:22:05.044Z,1024.00
2018-02-10T08:23:05.023Z,1008.00
2018-02-10T08:25:01.001Z,980.00
2018-02-10T08:26:00.948Z,1024.00
2018-02-10T08:27:57.401Z,1196.00
2018-02-10T08:28:57.410Z,1224.00
2018-02-10T08:30:53.791Z,1272.00
2018-02-10T08:31:52.764Z,1344.00
2018-02-10T08:33:48.684Z,1492.00
2018-02-10T08:34:48.678Z,1564.00
2018-02-10T08:36:44.627Z,1528.00
2018-02-10T08:37:44.598Z,1512.00
2018-02-10T08:39:40.555Z,1580.00
2018-02-10T08:40:40.527Z,1668.00
2018-02-10T08:42:36.502Z,1412.00
2018-02-10T08:43:36.965Z,1260.00
2018-02-10T08:45:32.372Z,1268.00
2018-02-10T08:46:32.369Z,1412.00
2018-02-10T08:48:28.293Z,1364.00
2018-02-10T08:49:28.818Z,1288.00
2018-02-10T08:51:29.635Z,1256.00
2018-02-10T08:52:24.200Z,1320.00
2018-02-10T08:54:21.164Z,1464.00
2018-02-10T08:55:20.205Z,1464.00
2018-02-10T08:57:16.065Z,1520.00
2018-02-10T08:58:16.581Z,1532.00
2018-02-10T09:00:11.985Z,1608.00
2018-02-10T09:01:11.992Z,1752.00
2018-02-10T09:03:08.943Z,2368.00
2018-02-10T09:04:07.903Z,2736.00
2018-02-10T09:06:04.355Z,2556.00
2018-02-10T09:07:03.817Z,2616.00
2018-02-10T09:08:59.750Z,2752.00
2018-02-10T09:10:00.273Z,2684.00
2018-02-10T09:11:55.692Z,2740.00
2018-02-10T09:12:55.658Z,2748.00
2018-02-10T09:14:51.573Z,2408.00
2018-02-10T09:15:52.106Z,2212.00
2018-02-10T09:17:47.510Z,2108.00
2018-02-10T09:18:47.472Z,2000.00
2018-02-10T09:20:43.940Z,1892.00
2018-02-10T09:21:43.404Z,1844.00
2018-02-10T09:23:39.870Z,1820.00
2018-02-10T09:24:39.843Z,1852.00
2018-02-10T09:26:35.304Z,1980.00
2018-02-10T09:27:35.261Z,1912.00
2018-02-10T09:29:31.199Z,1788.00
2018-02-10T09:30:31.184Z,1672.00
2018-02-10T09:32:25.613Z,1368.00
2018-02-10T09:33:25.633Z,1328.00
2018-02-10T09:35:22.059Z,1400.00
2018-02-10T09:36:21.558Z,1500.00
2018-02-10T09:38:18.007Z,1616.00
2018-02-10T09:39:17.467Z,1576.00
2018-02-10T09:41:13.400Z,1580.00
2018-02-10T09:42:13.402Z,1604.00
2018-02-10T09:44:09.330Z,1464.00
2018-02-10T09:45:09.312Z,1356.00
2018-02-10T09:47:05.261Z,1404.00
2018-02-10T09:48:05.250Z,1500.00
2018-02-10T09:50:01.690Z,1576.00
2018-02-10T09:51:01.165Z,1604.00
2018-02-10T09:52:57.615Z,1628.00
2018-02-10T09:53:57.087Z,1608.00
2018-02-10T09:55:51.553Z,1608.00
2018-02-10T09:56:51.534Z,1744.00
2018-02-10T09:58:47.969Z,1868.00
2018-02-10T09:59:47.452Z,1928.00
2018-02-10T10:01:43.395Z,2068.00
2018-02-10T10:02:43.890Z,2008.00
2018-02-10T10:04:38.831Z,1780.00
2018-02-10T10:05:37.788Z,1880.00
2018-02-10T10:07:34.239Z,1996.00
2018-02-10T10:08:33.728Z,1948.00
2018-02-10T10:10:30.142Z,1628.00
2018-02-10T10:11:29.633Z,1584.00
2018-02-10T10:13:26.102Z,1760.00
2018-02-10T10:14:25.541Z,1944.00
2018-02-10T10:16:21.995Z,2436.00
2018-02-10T10:17:21.482Z,2648.00
2018-02-10T10:19:17.417Z,2880.00
2018-02-10T10:20:17.416Z,3072.00
2018-02-10T10:22:13.440Z,3120.00
2018-02-10T10:23:13.351Z,3128.00
2018-02-10T10:25:09.810Z,2984.00
2018-02-10T10:26:09.253Z,2740.00
2018-02-10T10:28:05.221Z,2472.00
2018-02-10T10:29:05.703Z,2496.00
2018-02-10T10:31:02.618Z,2588.00
2018-02-10T10:32:01.082Z,2312.00
2018-02-10T10:33:57.542Z,2028.00
2018-02-10T10:34:57.039Z,2036.00
2018-02-10T10:36:54.465Z,1980.00
2018-02-10T10:37:53.460Z,1960.00
2018-02-10T10:39:48.888Z,2184.00
2018-02-10T10:40:48.872Z,2416.00
2018-02-10T10:42:44.846Z,2708.00
2018-02-10T10:43:45.327Z,2912.00
2018-02-10T10:45:42.283Z,2908.00
2018-02-10T10:46:40.785Z,2924.00
2018-02-10T10:48:36.711Z,2780.00
2018-02-10T10:49:36.666Z,2772.00
2018-02-10T10:51:32.635Z,2876.00
2018-02-10T10:52:32.587Z,2832.00
2018-02-10T10:54:28.554Z,2752.00
2018-02-10T10:55:28.534Z,2716.00
2018-02-10T10:57:24.473Z,3036.00
2018-02-10T10:58:25.987Z,3416.00
2018-02-10T11:00:20.392Z,3584.00
2018-02-10T11:01:20.424Z,3708.00
2018-02-10T11:03:16.841Z,3016.00
2018-02-10T11:04:16.831Z,2900.00
2018-02-10T11:06:12.291Z,3228.00
2018-02-10T11:07:12.245Z,3692.00
2018-02-10T11:09:06.703Z,3628.00
2018-02-10T11:10:06.690Z,3748.00
2018-02-10T11:12:01.629Z,3524.00
2018-02-10T11:13:01.124Z,4060.00
2018-02-10T11:14:55.575Z,4744.00
2018-02-10T11:15:55.550Z,4032.00
2018-02-10T11:17:49.936Z,3120.00
2018-02-10T11:18:50.504Z,3048.00
2018-02-10T11:20:45.901Z,3492.00
2018-02-10T11:21:45.887Z,3672.00
2018-02-10T11:23:42.844Z,3388.00
2018-02-10T11:24:42.331Z,3276.00
2018-02-10T11:26:38.702Z,3768.00
2018-02-10T11:27:38.263Z,3736.00
2018-02-10T11:29:34.192Z,4128.00
2018-02-10T11:30:33.680Z,4384.00
2018-02-10T11:32:30.133Z,3500.00
2018-02-10T11:33:29.629Z,3380.00
2018-02-10T11:35:25.530Z,2960.00
2018-02-10T11:36:26.054Z,2944.00
2018-02-10T11:38:21.451Z,2896.00
2018-02-10T11:39:21.438Z,3040.00
2018-02-10T11:41:15.870Z,2912.00
2018-02-10T11:42:15.866Z,2872.00
2018-02-10T11:44:10.288Z,2984.00
2018-02-10T11:45:10.292Z,3096.00
2018-02-10T11:47:06.237Z,3536.00
2018-02-10T11:48:07.778Z,3252.00
2018-02-10T11:50:00.634Z,2396.00
2018-02-10T11:51:01.157Z,2180.00
2018-02-10T11:52:56.614Z,2024.00
2018-02-10T11:53:57.078Z,2092.00
2018-02-10T11:55:50.017Z,2132.00
2018-02-10T11:56:50.078Z,2260.00
2018-02-10T11:58:46.863Z,1972.00
2018-02-10T11:59:45.933Z,1900.00
2018-02-10T12:01:41.874Z,1844.00
2018-02-10T12:02:42.383Z,1604.00
2018-02-10T12:04:39.288Z,1552.00
2018-02-10T12:05:37.795Z,1580.00
2018-02-10T12:07:34.732Z,1612.00
2018-02-10T12:08:33.704Z,1588.00
2018-02-10T12:10:29.641Z,1696.00
2018-02-10T12:11:31.080Z,1640.00
2018-02-10T12:13:25.609Z,1480.00
2018-02-10T12:14:25.569Z,1468.00
2018-02-10T12:16:22.015Z,1544.00
2018-02-10T12:17:21.520Z,1648.00
2018-02-10T12:19:15.957Z,1712.00
2018-02-10T12:20:15.962Z,1700.00
2018-02-10T12:22:10.357Z,1620.00
2018-02-10T12:23:10.374Z,1600.00
2018-02-10T12:25:05.322Z,1724.00
2018-02-10T12:26:04.842Z,1604.00
2018-02-10T12:27:59.740Z,1592.00
2018-02-10T12:28:59.187Z,1624.00
2018-02-10T12:30:53.650Z,1848.00
2018-02-10T12:31:54.128Z,1880.00
2018-02-10T12:33:49.087Z,2020.00
2018-02-10T12:34:48.073Z,2232.00
2018-02-10T12:36:43.982Z,2232.00
2018-02-10T12:37:44.504Z,2324.00
2018-02-10T12:39:38.932Z,2360.00
2018-02-10T12:40:38.410Z,2472.00
2018-02-10T12:42:31.857Z,2576.00
2018-02-10T12:43:31.828Z,2500.00
2018-02-10T12:45:26.244Z,2180.00
2018-02-10T12:46:26.248Z,2092.00
2018-02-10T12:48:22.184Z,2184.00
2018-02-10T12:49:22.143Z,1924.00
2018-02-10T12:51:18.111Z,2052.00
2018-02-10T12:52:18.605Z,2088.00
2018-02-10T12:54:14.530Z,2572.00
2018-02-10T12:55:14.002Z,3200.00
2018-02-10T12:57:09.960Z,3632.00
2018-02-10T12:58:09.930Z,3800.00
2018-02-10T13:00:03.353Z,4208.00
2018-02-10T13:01:03.858Z,4384.00
2018-02-10T13:02:58.291Z,4744.00
2018-02-10T13:03:57.777Z,4560.00
2018-02-10T13:05:53.700Z,3684.00
2018-02-10T13:06:53.694Z,3108.00
2018-02-10T13:08:48.155Z,2660.00
2018-02-10T13:09:48.642Z,2092.00
2018-02-10T13:11:46.083Z,2280.00
2018-02-10T13:12:46.060Z,2348.00
2018-02-10T13:14:42.515Z,2744.00
2018-02-10T13:15:41.990Z,2472.00
2018-02-10T13:17:35.453Z,3884.00
2018-02-10T13:18:35.424Z,3588.00
2018-02-10T13:20:30.411Z,2956.00
2018-02-10T13:21:30.376Z,3060.00
2018-02-10T13:23:24.334Z,3408.00
2018-02-10T13:24:24.310Z,3804.00
2018-02-10T13:26:20.217Z,4232.00
2018-02-10T13:27:20.874Z,4792.00
2018-02-10T13:29:16.689Z,5888.00
2018-02-10T13:30:16.146Z,6472.00
2018-02-10T13:32:12.111Z,6656.00
2018-02-10T13:33:12.077Z,6972.00
2018-02-10T13:35:08.116Z,6168.00
2018-02-10T13:36:08.042Z,5600.00
2018-02-10T13:38:04.973Z,5660.00
2018-02-10T13:39:03.936Z,5688.00
2018-02-10T13:41:00.732Z,3752.00
2018-02-10T13:41:59.853Z,4252.00
2018-02-10T13:43:55.793Z,3564.00
2018-02-10T13:44:55.782Z,3284.00
2018-02-10T13:46:51.737Z,2404.00
2018-02-10T13:47:52.234Z,2188.00
2018-02-10T13:49:47.689Z,2252.00
2018-02-10T13:50:47.643Z,1960.00
2018-02-10T13:52:44.114Z,1608.00
2018-02-10T13:53:43.592Z,1728.00
2018-02-10T13:55:39.524Z,1840.00
2018-02-10T13:56:39.528Z,1868.00
2018-02-10T13:58:35.419Z,1496.00
2018-02-10T13:59:35.412Z,1424.00
2018-02-10T14:01:32.344Z,1404.00
2018-02-10T14:02:32.333Z,1316.00
2018-02-10T14:04:29.302Z,1376.00
2018-02-10T14:05:28.248Z,1268.00
2018-02-10T14:07:24.233Z,1096.00
2018-02-10T14:08:24.178Z,992.00
2018-02-10T14:10:20.746Z,968.00
2018-02-10T14:11:20.118Z,916.00
2018-02-10T14:13:16.561Z,872.00
2018-02-10T14:14:16.060Z,780.00
2018-02-10T14:16:12.005Z,780.00
2018-02-10T14:17:12.015Z,836.00
2018-02-10T14:19:07.958Z,864.00
2018-02-10T14:20:07.936Z,852.00
2018-02-10T14:22:03.875Z,756.00
2018-02-10T14:23:05.388Z,728.00
2018-02-10T14:25:03.803Z,976.00
2018-02-10T14:25:59.836Z,908.00
2018-02-10T14:27:55.791Z,928.00
2018-02-10T14:28:55.709Z,808.00
2018-02-10T14:30:52.671Z,940.00
2018-02-10T14:31:51.680Z,1156.00
2018-02-10T14:33:48.126Z,1020.00
2018-02-10T14:34:47.610Z,1348.00
2018-02-10T14:36:44.060Z,1832.00
2018-02-10T14:37:44.067Z,2144.00
2018-02-10T14:39:39.449Z,2756.00
2018-02-10T14:40:39.447Z,2352.00
2018-02-10T14:42:35.456Z,2156.00
2018-02-10T14:43:36.823Z,2196.00
2018-02-10T14:45:31.336Z,2160.00
2018-02-10T14:46:31.317Z,2024.00
2018-02-10T14:48:25.780Z,2080.00
2018-02-10T14:49:25.705Z,2168.00
2018-02-10T14:51:21.669Z,2172.00
2018-02-10T14:52:21.650Z,2084.00
2018-02-10T14:54:18.532Z,1964.00
2018-02-10T14:55:17.582Z,2076.00
2018-02-10T14:57:13.510Z,2196.00
2018-02-10T14:58:13.487Z,2452.00
2018-02-10T15:00:09.435Z,2384.00
2018-02-10T15:01:09.941Z,2176.00
2018-02-10T15:03:05.862Z,1840.00
2018-02-10T15:04:06.870Z,1864.00
2018-02-10T15:06:01.305Z,1952.00
2018-02-10T15:07:01.264Z,1828.00
2018-02-10T15:08:57.713Z,1564.00
2018-02-10T15:09:57.189Z,1376.00
2018-02-10T15:11:53.123Z,1336.00
2018-02-10T15:12:53.235Z,1396.00
2018-02-10T15:14:49.582Z,1392.00
2018-02-10T15:15:49.991Z,1540.00
2018-02-10T15:17:44.972Z,1488.00
2018-02-10T15:18:44.966Z,1368.00
2018-02-10T15:20:40.860Z,1256.00
2018-02-10T15:21:40.876Z,1224.00
2018-02-10T15:23:37.335Z,1252.00
2018-02-10T15:24:37.308Z,1316.00
2018-02-10T15:26:32.756Z,1428.00
2018-02-10T15:27:32.755Z,1508.00
2018-02-10T15:29:29.178Z,1716.00
2018-02-10T15:30:28.646Z,1804.00
2018-02-10T15:32:24.608Z,1700.00
2018-02-10T15:33:24.593Z,1628.00
2018-02-10T15:35:21.544Z,1596.00
2018-02-10T15:36:20.538Z,1600.00
2018-02-10T15:38:17.477Z,1452.00
2018-02-10T15:39:16.429Z,1404.00
2018-02-10T15:41:12.883Z,1488.00
2018-02-10T15:42:13.808Z,1508.00
2018-02-10T15:44:07.356Z,1460.00
2018-02-10T15:45:07.811Z,1452.00
2018-02-10T15:47:03.630Z,1436.00
2018-02-10T15:48:03.615Z,1448.00
2018-02-10T15:49:59.048Z,1568.00
2018-02-10T15:50:59.044Z,1588.00
2018-02-10T15:52:54.951Z,1776.00
2018-02-10T15:53:54.985Z,1824.00
2018-02-10T15:55:50.905Z,1772.00
2018-02-10T15:56:50.861Z,1772.00
2018-02-10T15:58:49.802Z,1624.00
2018-02-10T15:59:48.891Z,1604.00
2018-02-10T16:01:45.317Z,1360.00
2018-02-10T16:02:44.827Z,1164.00
2018-02-10T16:04:41.327Z,972.00
2018-02-10T16:05:40.739Z,936.00
2018-02-10T16:07:37.183Z,908.00
2018-02-10T16:08:36.653Z,876.00
2018-02-10T16:10:34.651Z,784.00
2018-02-10T16:11:34.575Z,740.00
2018-02-10T16:13:31.029Z,652.00
2018-02-10T16:14:30.502Z,624.00
2018-02-10T16:16:26.983Z,588.00
2018-02-10T16:17:26.974Z,572.00
2018-02-10T16:19:24.427Z,532.00
2018-02-10T16:20:24.393Z,512.00
2018-02-10T16:22:22.319Z,460.00
2018-02-10T16:23:23.861Z,436.00
2018-02-10T16:25:18.330Z,396.00
2018-02-10T16:26:18.257Z,372.00
2018-02-10T16:28:14.727Z,336.00
2018-02-10T16:29:14.709Z,320.00
2018-02-10T16:31:10.089Z,276.00
2018-02-10T16:32:10.600Z,264.00
2018-02-10T16:34:06.057Z,224.00
2018-02-10T16:35:06.527Z,208.00
2018-02-10T16:37:01.934Z,176.00
2018-02-10T16:38:01.940Z,160.00
2018-02-10T16:40:00.884Z,136.00
2018-02-10T16:40:59.850Z,124.00
2018-02-10T16:42:55.793Z,100.00
2018-02-10T16:43:55.808Z,88.00
2018-02-10T16:45:51.751Z,72.00
2018-02-10T16:46:51.723Z,64.00
2018-02-10T16:48:47.662Z,52.00
2018-02-10T16:49:47.647Z,44.00
2018-02-10T16:51:43.598Z,36.00
2018-02-10T16:52:43.558Z,32.00
2018-02-10T16:54:39.513Z,24.00
2018-02-10T16:55:39.483Z,20.00
2018-02-10T16:57:37.422Z,16.00
2018-02-10T16:58:37.412Z,12.00
2018-02-10T17:00:33.365Z,12.00
2018-02-10T17:01:33.344Z,12.00
2018-02-10T17:03:29.285Z,8.00
2018-02-10T17:04:29.272Z,4.00
2018-02-10T17:06:26.352Z,4.00
2018-02-10T17:07:26.300Z,4.00
2018-02-10T17:09:22.267Z,4.00
2018-02-10T17:10:22.241Z,0.00
2018-02-10T17:12:18.166Z,4.00
2018-02-10T17:13:18.152Z,4.00
2018-02-10T17:15:14.111Z,4.00
2018-02-10T17:16:14.143Z,4.00
2018-02-10T17:18:21.080Z,0.00
2018-02-10T17:19:20.187Z,0.00
2018-02-10T17:21:16.146Z,0.00
2018-02-10T17:22:16.111Z,0.00
2018-02-10T17:24:12.042Z,0.00
2018-02-10T17:25:12.031Z,0.00
2018-02-10T17:27:09.409Z,0.00
2018-02-10T17:28:07.960Z,0.00
2018-02-10T17:30:04.413Z,0.00
2018-02-10T17:31:04.413Z,0.00
2018-02-10T17:33:02.549Z,0.00
2018-02-10T17:34:03.372Z,0.00
2018-02-10T17:35:57.745Z,0.00
2018-02-10T17:38:21.864Z,0.00
2018-02-10T17:39:21.714Z,0.00
2018-02-10T17:41:16.195Z,0.00
2018-02-10T17:42:16.192Z,0.00
2018-02-10T17:44:12.174Z,0.00
2018-02-10T17:45:12.162Z,0.00
2018-02-10T17:47:06.590Z,0.00
2018-02-10T17:48:06.598Z,0.00
2018-02-10T17:50:03.036Z,0.00
2018-02-10T17:51:02.505Z,0.00
2018-02-10T17:52:59.451Z,0.00
2018-02-10T17:55:14.486Z,0.00
2018-02-10T17:56:15.111Z,0.00
2018-02-10T17:58:09.863Z,0.00
2018-02-10T17:59:08.775Z,0.00
2018-02-10T18:01:14.275Z,0.00
2018-02-10T18:03:26.132Z,0.00
2018-02-10T18:04:22.770Z,0.00
2018-02-10T18:07:55.404Z,0.00
2018-02-10T18:10:08.826Z,0.00
2018-02-10T18:13:11.565Z,0.00
2018-02-10T18:14:10.210Z,0.00
2018-02-10T18:17:06.715Z,0.00
2018-02-10T18:19:02.651Z,0.00
2018-02-10T18:20:01.151Z,0.00
2018-02-10T18:21:57.100Z,0.00
2018-02-10T18:22:57.083Z,0.00
2018-02-10T18:24:53.537Z,0.00
2018-02-10T18:25:53.025Z,0.00
2018-02-10T18:27:48.956Z,0.00
2018-02-10T18:28:48.927Z,0.00
2018-02-10T18:30:44.866Z,0.00
2018-02-10T18:31:44.878Z,0.00
2018-02-10T18:33:40.838Z,0.00
2018-02-10T18:34:41.325Z,0.00
2018-02-10T18:36:36.698Z,0.00
2018-02-10T18:37:37.234Z,0.00
2018-02-10T18:39:32.693Z,0.00
2018-02-10T18:40:34.069Z,0.00
2018-02-10T18:42:28.582Z,0.00